sensor_id;sensor_type;location;lat;lon;timestamp;P1;durP1;ratioP1;P2;durP2;ratioP2
48743;SDS011;34538;48.836;9.174;2022-12-07T00:01:23;10.40;;;5.53;;
48743;SDS011;34538;48.836;9.174;2022-12-07T00:03:54;8.93;;;5.38;;
48743;SDS011;34538;48.836;9.174;2022-12-07T00:06:29;9.80;;;5.43;;
48743;SDS011;34538;48.836;9.174;2022-12-07T00:08:56;10.18;;;5.68;;
48743;SDS011;34538;48.836;9.174;2022-12-07T00:11:23;10.82;;;5.70;;
48743;SDS011;34538;48.836;9.174;2022-12-07T00:13:51;9.05;;;5.57;;
48743;SDS011;34538;48.836;9.174;2022-12-07T00:16:19;10.20;;;6.28;;
48743;SDS011;34538;48.836;9.174;2022-12-07T00:18:46;10.15;;;5.95;;
48743;SDS011;34538;48.836;9.174;2022-12-07T00:21:16;10.98;;;5.85;;
48743;SDS011;34538;48.836;9.174;2022-12-07T00:23:44;9.02;;;5.93;;
48743;SDS011;34538;48.836;9.174;2022-12-07T00:26:13;10.70;;;5.90;;
48743;SDS011;34538;48.836;9.174;2022-12-07T00:28:41;11.82;;;5.97;;
48743;SDS011;34538;48.836;9.174;2022-12-07T00:31:11;10.50;;;5.88;;
48743;SDS011;34538;48.836;9.174;2022-12-07T00:33:39;10.98;;;6.07;;
48743;SDS011;34538;48.836;9.174;2022-12-07T00:36:07;10.32;;;6.30;;
48743;SDS011;34538;48.836;9.174;2022-12-07T00:38:37;9.70;;;5.55;;
48743;SDS011;34538;48.836;9.174;2022-12-07T00:41:05;12.02;;;6.43;;
48743;SDS011;34538;48.836;9.174;2022-12-07T00:43:35;10.38;;;5.60;;
48743;SDS011;34538;48.836;9.174;2022-12-07T00:46:02;11.45;;;6.32;;
48743;SDS011;34538;48.836;9.174;2022-12-07T00:48:29;11.82;;;5.85;;
48743;SDS011;34538;48.836;9.174;2022-12-07T00:50:56;10.55;;;6.10;;
48743;SDS011;34538;48.836;9.174;2022-12-07T00:53:23;10.70;;;5.80;;
48743;SDS011;34538;48.836;9.174;2022-12-07T00:55:52;11.57;;;5.88;;
48743;SDS011;34538;48.836;9.174;2022-12-07T00:58:20;10.23;;;5.97;;
48743;SDS011;34538;48.836;9.174;2022-12-07T01:00:47;12.38;;;6.65;;
48743;SDS011;34538;48.836;9.174;2022-12-07T01:03:15;11.07;;;6.45;;
48743;SDS011;34538;48.836;9.174;2022-12-07T01:05:48;11.73;;;6.10;;
48743;SDS011;34538;48.836;9.174;2022-12-07T01:08:16;10.20;;;6.25;;
48743;SDS011;34538;48.836;9.174;2022-12-07T01:10:43;11.23;;;6.35;;
48743;SDS011;34538;48.836;9.174;2022-12-07T01:13:11;10.40;;;6.75;;
48743;SDS011;34538;48.836;9.174;2022-12-07T01:15:38;10.98;;;5.88;;
48743;SDS011;34538;48.836;9.174;2022-12-07T01:18:06;11.35;;;6.63;;
48743;SDS011;34538;48.836;9.174;2022-12-07T01:20:33;11.60;;;6.25;;
48743;SDS011;34538;48.836;9.174;2022-12-07T01:23:00;10.98;;;6.28;;
48743;SDS011;34538;48.836;9.174;2022-12-07T01:25:26;14.10;;;6.40;;
48743;SDS011;34538;48.836;9.174;2022-12-07T01:27:53;13.40;;;7.38;;
48743;SDS011;34538;48.836;9.174;2022-12-07T01:30:22;11.57;;;5.97;;
48743;SDS011;34538;48.836;9.174;2022-12-07T01:32:48;11.98;;;6.15;;
48743;SDS011;34538;48.836;9.174;2022-12-07T01:35:15;14.35;;;6.80;;
48743;SDS011;34538;48.836;9.174;2022-12-07T01:37:42;11.48;;;6.32;;
48743;SDS011;34538;48.836;9.174;2022-12-07T01:40:09;13.60;;;7.03;;
48743;SDS011;34538;48.836;9.174;2022-12-07T01:42:37;13.77;;;6.55;;
48743;SDS011;34538;48.836;9.174;2022-12-07T01:48:05;11.52;;;6.68;;
48743;SDS011;34538;48.836;9.174;2022-12-07T01:50:33;12.10;;;6.60;;
48743;SDS011;34538;48.836;9.174;2022-12-07T01:53:01;10.45;;;6.15;;
48743;SDS011;34538;48.836;9.174;2022-12-07T01:55:31;13.07;;;6.32;;
48743;SDS011;34538;48.836;9.174;2022-12-07T01:57:58;11.55;;;6.22;;
48743;SDS011;34538;48.836;9.174;2022-12-07T02:00:26;9.85;;;6.35;;
48743;SDS011;34538;48.836;9.174;2022-12-07T02:02:53;11.02;;;5.72;;
48743;SDS011;34538;48.836;9.174;2022-12-07T02:05:23;11.25;;;6.63;;
48743;SDS011;34538;48.836;9.174;2022-12-07T02:07:51;11.88;;;6.43;;
48743;SDS011;34538;48.836;9.174;2022-12-07T02:10:21;10.73;;;5.82;;
48743;SDS011;34538;48.836;9.174;2022-12-07T02:12:50;9.98;;;6.65;;
48743;SDS011;34538;48.836;9.174;2022-12-07T02:15:24;12.85;;;6.75;;
48743;SDS011;34538;48.836;9.174;2022-12-07T02:17:56;13.98;;;7.05;;
48743;SDS011;34538;48.836;9.174;2022-12-07T02:20:32;14.27;;;7.07;;
48743;SDS011;34538;48.836;9.174;2022-12-07T02:23:12;12.98;;;6.43;;
48743;SDS011;34538;48.836;9.174;2022-12-07T02:26:02;11.95;;;7.10;;
48743;SDS011;34538;48.836;9.174;2022-12-07T02:28:51;11.23;;;6.53;;
48743;SDS011;34538;48.836;9.174;2022-12-07T02:31:32;11.82;;;6.22;;
48743;SDS011;34538;48.836;9.174;2022-12-07T02:34:02;13.65;;;6.35;;
48743;SDS011;34538;48.836;9.174;2022-12-07T02:36:34;9.45;;;5.82;;
48743;SDS011;34538;48.836;9.174;2022-12-07T02:39:06;11.90;;;6.30;;
48743;SDS011;34538;48.836;9.174;2022-12-07T02:41:39;11.65;;;7.00;;
48743;SDS011;34538;48.836;9.174;2022-12-07T02:44:11;12.80;;;6.82;;
48743;SDS011;34538;48.836;9.174;2022-12-07T02:46:42;11.50;;;6.43;;
48743;SDS011;34538;48.836;9.174;2022-12-07T02:49:13;11.63;;;6.28;;
48743;SDS011;34538;48.836;9.174;2022-12-07T02:51:40;12.32;;;6.20;;
48743;SDS011;34538;48.836;9.174;2022-12-07T02:54:09;10.43;;;5.65;;
48743;SDS011;34538;48.836;9.174;2022-12-07T02:56:39;9.85;;;5.97;;
48743;SDS011;34538;48.836;9.174;2022-12-07T02:59:14;10.65;;;5.70;;
48743;SDS011;34538;48.836;9.174;2022-12-07T03:01:53;9.98;;;6.00;;
48743;SDS011;34538;48.836;9.174;2022-12-07T03:04:33;11.50;;;5.50;;
48743;SDS011;34538;48.836;9.174;2022-12-07T03:07:11;9.80;;;5.75;;
48743;SDS011;34538;48.836;9.174;2022-12-07T03:09:45;12.40;;;6.40;;
48743;SDS011;34538;48.836;9.174;2022-12-07T03:12:18;10.13;;;6.03;;
48743;SDS011;34538;48.836;9.174;2022-12-07T03:14:55;10.77;;;5.78;;
48743;SDS011;34538;48.836;9.174;2022-12-07T03:17:27;10.48;;;5.85;;
48743;SDS011;34538;48.836;9.174;2022-12-07T03:19:58;12.45;;;6.50;;
48743;SDS011;34538;48.836;9.174;2022-12-07T03:22:30;11.25;;;6.25;;
48743;SDS011;34538;48.836;9.174;2022-12-07T03:25:00;10.73;;;6.10;;
48743;SDS011;34538;48.836;9.174;2022-12-07T03:27:33;12.75;;;6.65;;
48743;SDS011;34538;48.836;9.174;2022-12-07T03:30:06;13.40;;;6.05;;
48743;SDS011;34538;48.836;9.174;2022-12-07T03:35:05;10.57;;;5.80;;
48743;SDS011;34538;48.836;9.174;2022-12-07T03:37:38;15.55;;;6.82;;
48743;SDS011;34538;48.836;9.174;2022-12-07T03:40:11;12.43;;;6.23;;
48743;SDS011;34538;48.836;9.174;2022-12-07T03:42:42;12.45;;;6.07;;
48743;SDS011;34538;48.836;9.174;2022-12-07T03:45:11;13.73;;;6.65;;
48743;SDS011;34538;48.836;9.174;2022-12-07T03:47:41;12.63;;;6.22;;
48743;SDS011;34538;48.836;9.174;2022-12-07T03:50:14;12.05;;;5.95;;
48743;SDS011;34538;48.836;9.174;2022-12-07T03:52:49;11.25;;;6.20;;
48743;SDS011;34538;48.836;9.174;2022-12-07T03:55:22;11.57;;;6.43;;
48743;SDS011;34538;48.836;9.174;2022-12-07T03:57:55;12.30;;;6.40;;
48743;SDS011;34538;48.836;9.174;2022-12-07T04:00:25;13.52;;;7.20;;
48743;SDS011;34538;48.836;9.174;2022-12-07T04:02:52;11.57;;;5.97;;
48743;SDS011;34538;48.836;9.174;2022-12-07T04:05:20;11.50;;;6.38;;
48743;SDS011;34538;48.836;9.174;2022-12-07T04:07:47;13.63;;;7.80;;
48743;SDS011;34538;48.836;9.174;2022-12-07T04:10:14;12.77;;;6.90;;
48743;SDS011;34538;48.836;9.174;2022-12-07T04:12:40;12.85;;;6.95;;
48743;SDS011;34538;48.836;9.174;2022-12-07T04:15:08;13.57;;;6.82;;
48743;SDS011;34538;48.836;9.174;2022-12-07T04:17:37;12.35;;;6.78;;
48743;SDS011;34538;48.836;9.174;2022-12-07T04:20:05;10.77;;;6.22;;
48743;SDS011;34538;48.836;9.174;2022-12-07T04:22:32;16.63;;;7.15;;
48743;SDS011;34538;48.836;9.174;2022-12-07T04:24:59;12.10;;;6.20;;
48743;SDS011;34538;48.836;9.174;2022-12-07T04:27:26;13.63;;;7.53;;
48743;SDS011;34538;48.836;9.174;2022-12-07T04:29:53;13.23;;;6.30;;
48743;SDS011;34538;48.836;9.174;2022-12-07T04:32:20;10.82;;;6.07;;
48743;SDS011;34538;48.836;9.174;2022-12-07T04:34:49;13.80;;;6.50;;
48743;SDS011;34538;48.836;9.174;2022-12-07T04:37:16;14.00;;;6.97;;
48743;SDS011;34538;48.836;9.174;2022-12-07T04:39:43;11.40;;;6.07;;
48743;SDS011;34538;48.836;9.174;2022-12-07T04:42:10;9.25;;;5.68;;
48743;SDS011;34538;48.836;9.174;2022-12-07T04:44:38;10.65;;;5.85;;
48743;SDS011;34538;48.836;9.174;2022-12-07T04:47:05;12.00;;;6.78;;
48743;SDS011;34538;48.836;9.174;2022-12-07T04:49:32;10.43;;;6.18;;
48743;SDS011;34538;48.836;9.174;2022-12-07T04:52:00;12.88;;;6.90;;
48743;SDS011;34538;48.836;9.174;2022-12-07T04:54:27;10.02;;;6.03;;
48743;SDS011;34538;48.836;9.174;2022-12-07T04:56:54;12.02;;;6.53;;
48743;SDS011;34538;48.836;9.174;2022-12-07T04:59:21;9.70;;;5.15;;
48743;SDS011;34538;48.836;9.174;2022-12-07T05:01:48;10.80;;;5.47;;
48743;SDS011;34538;48.836;9.174;2022-12-07T05:04:14;13.35;;;6.65;;
48743;SDS011;34538;48.836;9.174;2022-12-07T05:06:42;11.10;;;5.82;;
48743;SDS011;34538;48.836;9.174;2022-12-07T05:09:11;11.23;;;5.95;;
48743;SDS011;34538;48.836;9.174;2022-12-07T05:11:38;9.60;;;5.65;;
48743;SDS011;34538;48.836;9.174;2022-12-07T05:14:06;14.57;;;7.65;;
48743;SDS011;34538;48.836;9.174;2022-12-07T05:16:36;11.63;;;6.45;;
48743;SDS011;34538;48.836;9.174;2022-12-07T05:19:03;12.05;;;6.97;;
48743;SDS011;34538;48.836;9.174;2022-12-07T05:21:30;13.10;;;6.80;;
48743;SDS011;34538;48.836;9.174;2022-12-07T05:23:57;12.35;;;6.43;;
48743;SDS011;34538;48.836;9.174;2022-12-07T05:26:25;13.02;;;6.65;;
48743;SDS011;34538;48.836;9.174;2022-12-07T05:28:53;12.48;;;6.68;;
48743;SDS011;34538;48.836;9.174;2022-12-07T05:31:20;11.18;;;6.22;;
48743;SDS011;34538;48.836;9.174;2022-12-07T05:33:47;11.38;;;7.53;;
48743;SDS011;34538;48.836;9.174;2022-12-07T05:36:14;14.75;;;9.95;;
48743;SDS011;34538;48.836;9.174;2022-12-07T05:38:41;11.75;;;6.65;;
48743;SDS011;34538;48.836;9.174;2022-12-07T05:41:08;11.07;;;6.07;;
48743;SDS011;34538;48.836;9.174;2022-12-07T05:44:00;10.40;;;6.10;;
48743;SDS011;34538;48.836;9.174;2022-12-07T05:46:27;12.60;;;7.22;;
48743;SDS011;34538;48.836;9.174;2022-12-07T05:48:54;11.38;;;6.22;;
48743;SDS011;34538;48.836;9.174;2022-12-07T05:51:21;9.90;;;6.30;;
48743;SDS011;34538;48.836;9.174;2022-12-07T05:53:47;11.48;;;6.38;;
48743;SDS011;34538;48.836;9.174;2022-12-07T05:56:14;11.98;;;6.70;;
48743;SDS011;34538;48.836;9.174;2022-12-07T05:58:41;11.20;;;5.80;;
48743;SDS011;34538;48.836;9.174;2022-12-07T06:01:27;14.40;;;6.38;;
48743;SDS011;34538;48.836;9.174;2022-12-07T06:03:54;14.13;;;6.68;;
48743;SDS011;34538;48.836;9.174;2022-12-07T06:06:20;14.40;;;6.35;;
48743;SDS011;34538;48.836;9.174;2022-12-07T06:08:47;10.27;;;6.53;;
48743;SDS011;34538;48.836;9.174;2022-12-07T06:11:14;15.13;;;7.10;;
48743;SDS011;34538;48.836;9.174;2022-12-07T06:13:58;12.77;;;7.07;;
48743;SDS011;34538;48.836;9.174;2022-12-07T06:16:27;15.48;;;6.93;;
48743;SDS011;34538;48.836;9.174;2022-12-07T06:18:53;11.48;;;6.30;;
48743;SDS011;34538;48.836;9.174;2022-12-07T06:21:20;13.23;;;7.10;;
48743;SDS011;34538;48.836;9.174;2022-12-07T06:23:47;13.60;;;6.63;;
48743;SDS011;34538;48.836;9.174;2022-12-07T06:26:14;12.20;;;6.63;;
48743;SDS011;34538;48.836;9.174;2022-12-07T06:28:41;11.63;;;6.28;;
48743;SDS011;34538;48.836;9.174;2022-12-07T06:31:08;14.02;;;7.50;;
48743;SDS011;34538;48.836;9.174;2022-12-07T06:33:37;15.00;;;7.35;;
48743;SDS011;34538;48.836;9.174;2022-12-07T06:36:04;11.25;;;6.18;;
48743;SDS011;34538;48.836;9.174;2022-12-07T06:38:31;11.07;;;6.00;;
48743;SDS011;34538;48.836;9.174;2022-12-07T06:40:58;13.45;;;6.70;;
48743;SDS011;34538;48.836;9.174;2022-12-07T06:43:25;11.90;;;6.05;;
48743;SDS011;34538;48.836;9.174;2022-12-07T06:45:52;9.73;;;5.10;;
48743;SDS011;34538;48.836;9.174;2022-12-07T06:48:19;10.00;;;5.35;;
48743;SDS011;34538;48.836;9.174;2022-12-07T06:50:47;10.50;;;5.35;;
48743;SDS011;34538;48.836;9.174;2022-12-07T06:53:14;9.43;;;5.20;;
48743;SDS011;34538;48.836;9.174;2022-12-07T06:55:41;9.73;;;5.82;;
48743;SDS011;34538;48.836;9.174;2022-12-07T06:58:08;9.85;;;4.78;;
48743;SDS011;34538;48.836;9.174;2022-12-07T07:00:35;8.18;;;4.43;;
48743;SDS011;34538;48.836;9.174;2022-12-07T07:03:02;11.13;;;5.22;;
48743;SDS011;34538;48.836;9.174;2022-12-07T07:05:29;10.00;;;4.93;;
48743;SDS011;34538;48.836;9.174;2022-12-07T07:07:57;10.15;;;5.40;;
48743;SDS011;34538;48.836;9.174;2022-12-07T07:10:24;11.25;;;4.95;;
48743;SDS011;34538;48.836;9.174;2022-12-07T07:12:51;8.85;;;4.53;;
48743;SDS011;34538;48.836;9.174;2022-12-07T07:15:18;10.25;;;5.00;;
48743;SDS011;34538;48.836;9.174;2022-12-07T07:17:44;8.00;;;4.50;;
48743;SDS011;34538;48.836;9.174;2022-12-07T07:20:12;8.32;;;4.28;;
48743;SDS011;34538;48.836;9.174;2022-12-07T07:22:38;6.88;;;4.10;;
48743;SDS011;34538;48.836;9.174;2022-12-07T07:25:07;8.73;;;4.68;;
48743;SDS011;34538;48.836;9.174;2022-12-07T07:27:34;6.90;;;4.32;;
48743;SDS011;34538;48.836;9.174;2022-12-07T07:30:01;8.15;;;4.05;;
48743;SDS011;34538;48.836;9.174;2022-12-07T07:32:29;6.95;;;4.07;;
48743;SDS011;34538;48.836;9.174;2022-12-07T07:34:56;8.77;;;4.35;;
48743;SDS011;34538;48.836;9.174;2022-12-07T07:37:22;6.53;;;3.90;;
48743;SDS011;34538;48.836;9.174;2022-12-07T07:39:49;9.68;;;4.35;;
48743;SDS011;34538;48.836;9.174;2022-12-07T07:42:17;6.95;;;4.05;;
48743;SDS011;34538;48.836;9.174;2022-12-07T07:44:45;7.38;;;4.07;;
48743;SDS011;34538;48.836;9.174;2022-12-07T07:47:13;7.43;;;4.18;;
48743;SDS011;34538;48.836;9.174;2022-12-07T07:49:40;7.97;;;4.05;;
48743;SDS011;34538;48.836;9.174;2022-12-07T07:52:07;10.20;;;4.13;;
48743;SDS011;34538;48.836;9.174;2022-12-07T07:54:33;9.15;;;3.83;;
48743;SDS011;34538;48.836;9.174;2022-12-07T07:57:00;7.28;;;3.83;;
48743;SDS011;34538;48.836;9.174;2022-12-07T07:59:28;7.68;;;4.30;;
48743;SDS011;34538;48.836;9.174;2022-12-07T08:01:55;8.05;;;4.53;;
48743;SDS011;34538;48.836;9.174;2022-12-07T08:04:22;7.25;;;3.95;;
48743;SDS011;34538;48.836;9.174;2022-12-07T08:06:49;7.40;;;4.03;;
48743;SDS011;34538;48.836;9.174;2022-12-07T08:09:16;5.90;;;3.50;;
48743;SDS011;34538;48.836;9.174;2022-12-07T08:11:43;9.05;;;3.70;;
48743;SDS011;34538;48.836;9.174;2022-12-07T08:14:10;7.32;;;3.65;;
48743;SDS011;34538;48.836;9.174;2022-12-07T08:16:39;7.00;;;3.63;;
48743;SDS011;34538;48.836;9.174;2022-12-07T08:19:06;7.57;;;3.60;;
48743;SDS011;34538;48.836;9.174;2022-12-07T08:21:33;7.68;;;3.67;;
48743;SDS011;34538;48.836;9.174;2022-12-07T08:24:00;7.78;;;3.40;;
48743;SDS011;34538;48.836;9.174;2022-12-07T08:26:27;7.60;;;4.15;;
48743;SDS011;34538;48.836;9.174;2022-12-07T08:28:54;8.95;;;4.07;;
48743;SDS011;34538;48.836;9.174;2022-12-07T08:31:21;6.57;;;3.92;;
48743;SDS011;34538;48.836;9.174;2022-12-07T08:33:49;7.68;;;3.88;;
48743;SDS011;34538;48.836;9.174;2022-12-07T08:36:16;7.65;;;3.53;;
48743;SDS011;34538;48.836;9.174;2022-12-07T08:38:44;8.27;;;4.00;;
48743;SDS011;34538;48.836;9.174;2022-12-07T08:41:11;10.10;;;3.88;;
48743;SDS011;34538;48.836;9.174;2022-12-07T08:43:38;8.68;;;4.15;;
48743;SDS011;34538;48.836;9.174;2022-12-07T08:46:06;7.68;;;3.90;;
48743;SDS011;34538;48.836;9.174;2022-12-07T08:48:36;7.97;;;3.67;;
48743;SDS011;34538;48.836;9.174;2022-12-07T08:51:08;8.10;;;4.00;;
48743;SDS011;34538;48.836;9.174;2022-12-07T08:53:35;8.32;;;4.43;;
48743;SDS011;34538;48.836;9.174;2022-12-07T08:56:04;5.95;;;3.65;;
48743;SDS011;34538;48.836;9.174;2022-12-07T08:58:32;9.40;;;4.15;;
48743;SDS011;34538;48.836;9.174;2022-12-07T09:01:00;6.53;;;3.90;;
48743;SDS011;34538;48.836;9.174;2022-12-07T09:03:27;7.78;;;3.80;;
48743;SDS011;34538;48.836;9.174;2022-12-07T09:05:54;8.70;;;4.03;;
48743;SDS011;34538;48.836;9.174;2022-12-07T09:08:22;9.57;;;3.90;;
48743;SDS011;34538;48.836;9.174;2022-12-07T09:10:54;5.78;;;3.45;;
48743;SDS011;34538;48.836;9.174;2022-12-07T09:13:21;5.95;;;3.75;;
48743;SDS011;34538;48.836;9.174;2022-12-07T09:15:48;8.05;;;3.88;;
48743;SDS011;34538;48.836;9.174;2022-12-07T09:18:14;7.05;;;3.78;;
48743;SDS011;34538;48.836;9.174;2022-12-07T09:20:41;7.55;;;3.97;;
48743;SDS011;34538;48.836;9.174;2022-12-07T09:23:08;7.65;;;3.83;;
48743;SDS011;34538;48.836;9.174;2022-12-07T09:25:36;9.27;;;4.35;;
48743;SDS011;34538;48.836;9.174;2022-12-07T09:28:03;10.07;;;3.45;;
48743;SDS011;34538;48.836;9.174;2022-12-07T09:30:30;6.95;;;3.47;;
48743;SDS011;34538;48.836;9.174;2022-12-07T09:32:57;7.57;;;3.17;;
48743;SDS011;34538;48.836;9.174;2022-12-07T09:35:24;9.30;;;3.67;;
48743;SDS011;34538;48.836;9.174;2022-12-07T09:37:51;7.57;;;3.50;;
48743;SDS011;34538;48.836;9.174;2022-12-07T09:40:19;7.22;;;3.85;;
48743;SDS011;34538;48.836;9.174;2022-12-07T09:42:49;7.20;;;3.08;;
48743;SDS011;34538;48.836;9.174;2022-12-07T09:45:21;6.95;;;3.42;;
48743;SDS011;34538;48.836;9.174;2022-12-07T09:47:50;6.65;;;3.55;;
48743;SDS011;34538;48.836;9.174;2022-12-07T09:50:19;5.20;;;2.78;;
48743;SDS011;34538;48.836;9.174;2022-12-07T09:52:49;7.57;;;2.63;;
48743;SDS011;34538;48.836;9.174;2022-12-07T09:55:19;7.68;;;3.05;;
48743;SDS011;34538;48.836;9.174;2022-12-07T09:57:52;6.40;;;2.70;;
48743;SDS011;34538;48.836;9.174;2022-12-07T10:00:20;5.00;;;2.90;;
48743;SDS011;34538;48.836;9.174;2022-12-07T10:02:50;7.35;;;2.75;;
48743;SDS011;34538;48.836;9.174;2022-12-07T10:05:22;4.88;;;3.05;;
48743;SDS011;34538;48.836;9.174;2022-12-07T10:07:53;5.40;;;2.90;;
48743;SDS011;34538;48.836;9.174;2022-12-07T10:10:22;6.63;;;3.10;;
48743;SDS011;34538;48.836;9.174;2022-12-07T10:12:54;5.70;;;2.78;;
48743;SDS011;34538;48.836;9.174;2022-12-07T10:15:23;6.03;;;3.00;;
48743;SDS011;34538;48.836;9.174;2022-12-07T10:18:13;7.20;;;3.10;;
48743;SDS011;34538;48.836;9.174;2022-12-07T10:20:44;5.43;;;2.70;;
48743;SDS011;34538;48.836;9.174;2022-12-07T10:23:13;7.47;;;3.15;;
48743;SDS011;34538;48.836;9.174;2022-12-07T10:25:42;6.47;;;3.13;;
48743;SDS011;34538;48.836;9.174;2022-12-07T10:28:15;7.10;;;3.08;;
48743;SDS011;34538;48.836;9.174;2022-12-07T10:30:47;8.18;;;3.67;;
48743;SDS011;34538;48.836;9.174;2022-12-07T10:33:33;7.25;;;3.40;;
48743;SDS011;34538;48.836;9.174;2022-12-07T10:36:15;7.80;;;3.50;;
48743;SDS011;34538;48.836;9.174;2022-12-07T10:38:44;6.68;;;3.00;;
48743;SDS011;34538;48.836;9.174;2022-12-07T10:41:13;9.27;;;3.78;;
48743;SDS011;34538;48.836;9.174;2022-12-07T10:43:47;5.38;;;3.08;;
48743;SDS011;34538;48.836;9.174;2022-12-07T10:49:16;5.70;;;2.83;;
48743;SDS011;34538;48.836;9.174;2022-12-07T10:51:58;5.40;;;3.00;;
48743;SDS011;34538;48.836;9.174;2022-12-07T10:54:30;4.60;;;2.70;;
48743;SDS011;34538;48.836;9.174;2022-12-07T10:57:21;5.10;;;2.30;;
48743;SDS011;34538;48.836;9.174;2022-12-07T11:00:04;4.63;;;2.47;;
48743;SDS011;34538;48.836;9.174;2022-12-07T11:02:47;6.20;;;2.05;;
48743;SDS011;34538;48.836;9.174;2022-12-07T11:05:26;3.25;;;2.05;;
48743;SDS011;34538;48.836;9.174;2022-12-07T11:08:00;3.90;;;2.30;;
48743;SDS011;34538;48.836;9.174;2022-12-07T11:10:35;4.38;;;2.22;;
48743;SDS011;34538;48.836;9.174;2022-12-07T11:13:19;3.10;;;1.80;;
48743;SDS011;34538;48.836;9.174;2022-12-07T11:15:59;3.50;;;2.10;;
48743;SDS011;34538;48.836;9.174;2022-12-07T11:18:35;3.22;;;1.80;;
48743;SDS011;34538;48.836;9.174;2022-12-07T11:21:11;3.47;;;2.10;;
48743;SDS011;34538;48.836;9.174;2022-12-07T11:23:47;4.85;;;2.38;;
48743;SDS011;34538;48.836;9.174;2022-12-07T11:26:23;3.63;;;2.10;;
48743;SDS011;34538;48.836;9.174;2022-12-07T11:29:02;2.88;;;1.95;;
48743;SDS011;34538;48.836;9.174;2022-12-07T11:31:46;4.50;;;2.50;;
48743;SDS011;34538;48.836;9.174;2022-12-07T11:34:23;4.97;;;2.60;;
48743;SDS011;34538;48.836;9.174;2022-12-07T11:36:56;5.28;;;2.72;;
48743;SDS011;34538;48.836;9.174;2022-12-07T11:39:26;10.48;;;3.25;;
48743;SDS011;34538;48.836;9.174;2022-12-07T11:42:00;5.85;;;3.22;;
48743;SDS011;34538;48.836;9.174;2022-12-07T11:44:33;9.40;;;3.45;;
48743;SDS011;34538;48.836;9.174;2022-12-07T11:47:08;9.43;;;4.05;;
48743;SDS011;34538;48.836;9.174;2022-12-07T11:49:42;6.32;;;3.70;;
48743;SDS011;34538;48.836;9.174;2022-12-07T11:52:16;6.82;;;3.60;;
48743;SDS011;34538;48.836;9.174;2022-12-07T11:54:48;6.40;;;3.42;;
48743;SDS011;34538;48.836;9.174;2022-12-07T11:57:20;9.85;;;4.57;;
48743;SDS011;34538;48.836;9.174;2022-12-07T11:59:53;8.73;;;3.90;;
48743;SDS011;34538;48.836;9.174;2022-12-07T12:02:33;6.13;;;3.72;;
48743;SDS011;34538;48.836;9.174;2022-12-07T12:05:11;7.00;;;4.20;;
48743;SDS011;34538;48.836;9.174;2022-12-07T12:07:41;6.38;;;3.45;;
48743;SDS011;34538;48.836;9.174;2022-12-07T12:10:14;7.43;;;3.42;;
48743;SDS011;34538;48.836;9.174;2022-12-07T12:12:50;6.97;;;3.60;;
48743;SDS011;34538;48.836;9.174;2022-12-07T12:15:36;5.70;;;3.20;;
48743;SDS011;34538;48.836;9.174;2022-12-07T12:18:26;7.03;;;3.88;;
48743;SDS011;34538;48.836;9.174;2022-12-07T12:21:09;6.35;;;3.60;;
48743;SDS011;34538;48.836;9.174;2022-12-07T12:23:40;6.15;;;3.60;;
48743;SDS011;34538;48.836;9.174;2022-12-07T12:26:13;8.35;;;4.07;;
48743;SDS011;34538;48.836;9.174;2022-12-07T12:28:50;8.45;;;3.78;;
48743;SDS011;34538;48.836;9.174;2022-12-07T12:31:34;8.27;;;4.22;;
48743;SDS011;34538;48.836;9.174;2022-12-07T12:36:57;6.22;;;3.67;;
48743;SDS011;34538;48.836;9.174;2022-12-07T12:39:24;9.35;;;3.83;;
48743;SDS011;34538;48.836;9.174;2022-12-07T12:41:55;6.22;;;3.60;;
48743;SDS011;34538;48.836;9.174;2022-12-07T12:50:25;7.65;;;4.68;;
48743;SDS011;34538;48.836;9.174;2022-12-07T12:52:58;7.97;;;4.47;;
48743;SDS011;34538;48.836;9.174;2022-12-07T12:59:07;8.82;;;4.20;;
48743;SDS011;34538;48.836;9.174;2022-12-07T13:01:53;7.65;;;4.07;;
48743;SDS011;34538;48.836;9.174;2022-12-07T13:04:30;8.13;;;4.05;;
48743;SDS011;34538;48.836;9.174;2022-12-07T13:07:11;7.22;;;4.05;;
48743;SDS011;34538;48.836;9.174;2022-12-07T13:09:42;7.72;;;4.10;;
48743;SDS011;34538;48.836;9.174;2022-12-07T13:12:12;7.55;;;4.15;;
48743;SDS011;34538;48.836;9.174;2022-12-07T13:14:55;7.05;;;3.97;;
48743;SDS011;34538;48.836;9.174;2022-12-07T13:20:40;8.05;;;4.60;;
48743;SDS011;34538;48.836;9.174;2022-12-07T13:23:24;7.15;;;4.25;;
48743;SDS011;34538;48.836;9.174;2022-12-07T13:25:55;6.10;;;3.80;;
48743;SDS011;34538;48.836;9.174;2022-12-07T13:28:32;7.80;;;4.32;;
48743;SDS011;34538;48.836;9.174;2022-12-07T13:31:09;7.35;;;4.25;;
48743;SDS011;34538;48.836;9.174;2022-12-07T13:33:41;8.93;;;4.78;;
48743;SDS011;34538;48.836;9.174;2022-12-07T13:36:12;8.13;;;4.20;;
48743;SDS011;34538;48.836;9.174;2022-12-07T13:38:51;8.75;;;4.88;;
48743;SDS011;34538;48.836;9.174;2022-12-07T13:41:20;8.60;;;4.45;;
48743;SDS011;34538;48.836;9.174;2022-12-07T13:43:49;9.57;;;4.40;;
48743;SDS011;34538;48.836;9.174;2022-12-07T13:46:19;8.63;;;4.70;;
48743;SDS011;34538;48.836;9.174;2022-12-07T13:48:50;9.63;;;4.95;;
48743;SDS011;34538;48.836;9.174;2022-12-07T13:51:18;8.55;;;4.82;;
48743;SDS011;34538;48.836;9.174;2022-12-07T13:53:48;7.82;;;4.43;;
48743;SDS011;34538;48.836;9.174;2022-12-07T13:56:17;9.20;;;4.90;;
48743;SDS011;34538;48.836;9.174;2022-12-07T13:58:47;8.50;;;4.53;;
48743;SDS011;34538;48.836;9.174;2022-12-07T14:01:14;11.18;;;5.07;;
48743;SDS011;34538;48.836;9.174;2022-12-07T14:03:41;11.38;;;5.70;;
48743;SDS011;34538;48.836;9.174;2022-12-07T14:06:20;11.27;;;5.55;;
48743;SDS011;34538;48.836;9.174;2022-12-07T14:09:07;9.75;;;5.05;;
48743;SDS011;34538;48.836;9.174;2022-12-07T14:11:35;9.27;;;5.15;;
48743;SDS011;34538;48.836;9.174;2022-12-07T14:14:03;9.77;;;5.65;;
48743;SDS011;34538;48.836;9.174;2022-12-07T14:16:33;10.73;;;6.15;;
48743;SDS011;34538;48.836;9.174;2022-12-07T14:19:02;12.02;;;5.55;;
48743;SDS011;34538;48.836;9.174;2022-12-07T14:21:31;9.75;;;5.35;;
48743;SDS011;34538;48.836;9.174;2022-12-07T14:24:09;11.35;;;5.05;;
48743;SDS011;34538;48.836;9.174;2022-12-07T14:29:58;9.77;;;5.07;;
48743;SDS011;34538;48.836;9.174;2022-12-07T14:32:26;9.63;;;4.45;;
48743;SDS011;34538;48.836;9.174;2022-12-07T14:34:55;10.00;;;5.05;;
48743;SDS011;34538;48.836;9.174;2022-12-07T14:37:23;9.82;;;5.10;;
48743;SDS011;34538;48.836;9.174;2022-12-07T14:39:51;8.32;;;4.20;;
48743;SDS011;34538;48.836;9.174;2022-12-07T14:42:18;9.13;;;4.50;;
48743;SDS011;34538;48.836;9.174;2022-12-07T14:44:46;8.13;;;4.47;;
48743;SDS011;34538;48.836;9.174;2022-12-07T14:47:13;11.10;;;4.75;;
48743;SDS011;34538;48.836;9.174;2022-12-07T14:49:40;9.98;;;5.03;;
48743;SDS011;34538;48.836;9.174;2022-12-07T14:52:09;9.00;;;4.72;;
48743;SDS011;34538;48.836;9.174;2022-12-07T14:54:41;9.05;;;5.38;;
48743;SDS011;34538;48.836;9.174;2022-12-07T14:57:13;9.68;;;4.85;;
48743;SDS011;34538;48.836;9.174;2022-12-07T14:59:40;8.85;;;4.55;;
48743;SDS011;34538;48.836;9.174;2022-12-07T15:02:09;11.88;;;5.07;;
48743;SDS011;34538;48.836;9.174;2022-12-07T15:04:38;11.25;;;5.13;;
48743;SDS011;34538;48.836;9.174;2022-12-07T15:07:06;19.38;;;6.40;;
48743;SDS011;34538;48.836;9.174;2022-12-07T15:09:36;9.90;;;5.63;;
48743;SDS011;34538;48.836;9.174;2022-12-07T15:12:04;9.15;;;4.65;;
48743;SDS011;34538;48.836;9.174;2022-12-07T15:14:32;10.52;;;5.20;;
48743;SDS011;34538;48.836;9.174;2022-12-07T15:16:59;9.95;;;5.47;;
48743;SDS011;34538;48.836;9.174;2022-12-07T15:19:26;11.07;;;6.32;;
48743;SDS011;34538;48.836;9.174;2022-12-07T15:21:53;12.45;;;6.30;;
48743;SDS011;34538;48.836;9.174;2022-12-07T15:24:21;12.57;;;5.78;;
48743;SDS011;34538;48.836;9.174;2022-12-07T15:26:49;11.15;;;5.60;;